Time;durP1;ratioP1;P1;durP2;ratioP2;P2;SDS_P1;SDS_P2;PMS_P1;PMS_P2;Temp;Humidity;BMP_temperature;BMP_pressure;BME280_temperature;BME280_humidity;BME280_pressure;Samples;Min_cycle;Max_cycle;Signal;HPM_P1;HPM_P2
2022/10/06 00:00:20;;;;;;;3.58;1.00;;;16.90;99.90;;;;;;2085408;28;20024;-72
2022/10/06 00:01:21;;;;;;;3.22;1.13;;;16.90;99.90;;;;;;2083528;28;20057;-72
2022/10/06 00:02:22;;;;;;;2.60;0.90;;;16.90;99.90;;;;;;2083364;28;20600;-72
2022/10/06 00:03:22;;;;;;;1.77;1.00;;;16.90;99.90;;;;;;2085015;28;20021;-72
2022/10/06 00:04:23;;;;;;;2.80;1.05;;;16.90;99.90;;;;;;2086235;28;20551;-72
2022/10/06 00:05:23;;;;;;;2.92;0.93;;;16.90;99.90;;;;;;2083588;28;20483;-72
2022/10/06 00:06:24;;;;;;;1.58;1.02;;;16.90;99.90;;;;;;2084846;28;20071;-72
2022/10/06 00:07:24;;;;;;;1.85;0.75;;;16.90;99.90;;;;;;2084798;28;20025;-72
2022/10/06 00:08:26;;;;;;;1.23;0.80;;;16.90;99.90;;;;;;2085586;28;20029;-72
2022/10/06 00:09:26;;;;;;;3.35;0.93;;;16.90;99.90;;;;;;2085457;28;20064;-71
2022/10/06 00:10:27;;;;;;;3.65;1.13;;;16.90;99.90;;;;;;2083631;28;20033;-72
2022/10/06 00:11:28;;;;;;;2.42;0.80;;;16.90;99.90;;;;;;2086669;28;20031;-72
2022/10/06 00:12:28;;;;;;;3.80;1.20;;;16.90;99.90;;;;;;2078249;28;20060;-72
2022/10/06 00:13:29;;;;;;;2.53;0.90;;;16.90;99.90;;;;;;2076738;28;20029;-71
2022/10/06 00:14:30;;;;;;;1.20;0.95;;;16.90;99.90;;;;;;2087131;28;20025;-72
2022/10/06 00:15:31;;;;;;;2.92;1.00;;;16.80;99.90;;;;;;2082994;28;20018;-72
2022/10/06 00:16:32;;;;;;;2.78;0.85;;;16.80;99.90;;;;;;2082922;28;20025;-72
2022/10/06 00:17:32;;;;;;;3.80;1.17;;;16.80;99.90;;;;;;2086575;28;20180;-72
2022/10/06 00:18:33;;;;;;;4.38;1.02;;;16.80;99.90;;;;;;2084058;28;20036;-71
2022/10/06 00:19:33;;;;;;;3.33;0.80;;;16.80;99.90;;;;;;2085115;28;20090;-71
2022/10/06 00:20:34;;;;;;;3.13;1.00;;;16.80;99.90;;;;;;2085405;28;20031;-71
2022/10/06 00:21:34;;;;;;;1.70;0.70;;;16.70;99.90;;;;;;2086373;28;20049;-71
2022/10/06 00:22:38;;;;;;;2.00;0.70;;;16.70;99.90;;;;;;2086192;28;20469;-71
2022/10/06 00:23:38;;;;;;;1.35;0.63;;;16.70;99.90;;;;;;2086466;28;20036;-71
2022/10/06 00:24:39;;;;;;;2.50;0.90;;;16.70;99.90;;;;;;2085685;28;20045;-71
2022/10/06 00:25:39;;;;;;;3.67;1.30;;;16.70;99.90;;;;;;2086352;28;20047;-71
2022/10/06 00:26:40;;;;;;;3.83;0.80;;;16.70;99.90;;;;;;2085894;28;20049;-72
2022/10/06 00:27:43;;;;;;;2.92;0.95;;;16.60;99.90;;;;;;2086886;28;20017;-71
2022/10/06 00:28:46;;;;;;;2.33;0.65;;;16.70;99.90;;;;;;2086292;28;20032;-71
2022/10/06 00:29:46;;;;;;;5.20;0.80;;;16.70;99.90;;;;;;2086006;28;20071;-72
2022/10/06 00:30:47;;;;;;;3.45;1.05;;;16.70;99.90;;;;;;2085966;28;20168;-71
2022/10/06 00:31:47;;;;;;;2.20;0.75;;;16.70;99.90;;;;;;2085504;28;20025;-71
2022/10/06 00:32:56;;;;;;;2.75;0.90;;;16.60;99.90;;;;;;2084307;28;20471;-72
2022/10/06 00:33:57;;;;;;;3.83;1.17;;;16.60;99.90;;;;;;2083274;28;20045;-72
2022/10/06 00:34:57;;;;;;;4.57;0.95;;;16.60;99.90;;;;;;2082868;28;20036;-72
2022/10/06 00:35:59;;;;;;;3.17;0.75;;;16.60;99.90;;;;;;2083936;28;20025;-72
2022/10/06 00:37:00;;;;;;;2.97;0.88;;;16.60;99.90;;;;;;2085728;28;20028;-72
2022/10/06 00:38:00;;;;;;;4.22;0.77;;;16.60;99.90;;;;;;2083803;28;20075;-72
2022/10/06 00:39:01;;;;;;;3.40;1.13;;;16.60;99.90;;;;;;2084793;28;20501;-71
2022/10/06 00:40:05;;;;;;;5.93;1.52;;;16.60;99.90;;;;;;2085024;28;20539;-72
2022/10/06 00:41:06;;;;;;;2.25;0.70;;;16.60;99.90;;;;;;2085749;28;20890;-72
2022/10/06 00:42:20;;;;;;;3.15;1.02;;;16.60;99.90;;;;;;2084815;28;20330;-72
2022/10/06 00:43:52;;;;;;;3.10;0.93;;;16.60;99.90;;;;;;2085088;28;20044;-72
2022/10/06 00:44:53;;;;;;;3.88;1.10;;;16.50;99.90;;;;;;2086606;28;20021;-72
2022/10/06 00:45:54;;;;;;;1.65;0.52;;;16.50;99.90;;;;;;2075912;28;20061;-72
2022/10/06 00:46:55;;;;;;;4.10;1.00;;;16.50;99.90;;;;;;2078693;28;20018;-72
2022/10/06 00:47:59;;;;;;;5.32;1.13;;;16.50;99.90;;;;;;2084456;28;20412;-72
2022/10/06 00:49:03;;;;;;;2.50;0.75;;;16.40;99.90;;;;;;2085706;28;20049;-71
2022/10/06 00:50:05;;;;;;;3.10;1.00;;;16.50;99.90;;;;;;2084936;28;20044;-71
2022/10/06 00:51:05;;;;;;;3.58;1.10;;;16.50;99.90;;;;;;2085611;28;20092;-71
2022/10/06 00:52:13;;;;;;;4.22;1.13;;;16.40;99.90;;;;;;2084172;28;20042;-72
2022/10/06 00:53:15;;;;;;;3.10;0.90;;;16.40;99.90;;;;;;2085067;28;20100;-72
2022/10/06 00:54:16;;;;;;;5.38;1.15;;;16.40;99.90;;;;;;2083617;28;20388;-72
2022/10/06 00:55:19;;;;;;;4.80;1.10;;;16.40;99.90;;;;;;2085532;28;21091;-72
2022/10/06 00:56:19;;;;;;;2.22;0.90;;;16.40;99.90;;;;;;2084126;28;20024;-72
2022/10/06 00:57:20;;;;;;;5.35;1.20;;;16.30;99.90;;;;;;2085225;28;20049;-72
2022/10/06 00:58:21;;;;;;;4.68;1.48;;;16.30;99.90;;;;;;2086597;28;20077;-71
2022/10/06 00:59:22;;;;;;;2.55;1.00;;;16.30;99.90;;;;;;2085671;28;20021;-71
2022/10/06 01:00:22;;;;;;;3.20;1.30;;;16.30;99.90;;;;;;2083588;28;20112;-71
2022/10/06 01:01:24;;;;;;;2.97;1.00;;;16.20;99.90;;;;;;2083584;28;20107;-72
2022/10/06 01:02:42;;;;;;;2.70;1.00;;;16.20;99.90;;;;;;2084894;28;20111;-72
2022/10/06 01:03:52;;;;;;;7.30;1.20;;;16.20;99.90;;;;;;2084271;28;20021;-72
2022/10/06 01:04:57;;;;;;;4.30;1.17;;;16.10;99.90;;;;;;2083343;28;20029;-72
2022/10/06 01:06:00;;;;;;;2.95;1.10;;;16.10;99.90;;;;;;2083874;28;20033;-71
2022/10/06 01:07:01;;;;;;;3.85;1.38;;;16.10;99.90;;;;;;2085207;28;20044;-71
2022/10/06 01:08:02;;;;;;;4.32;1.25;;;16.10;99.90;;;;;;2085964;28;20037;-72
2022/10/06 01:09:03;;;;;;;2.67;1.20;;;16.00;99.90;;;;;;2084709;28;20635;-72
2022/10/06 01:10:03;;;;;;;2.83;1.17;;;16.00;99.90;;;;;;2084043;28;20056;-72
2022/10/06 01:11:05;;;;;;;4.55;1.50;;;16.10;99.90;;;;;;2085288;28;20021;-71
2022/10/06 01:12:07;;;;;;;4.97;1.23;;;16.10;99.90;;;;;;2083961;28;20025;-71
2022/10/06 01:13:10;;;;;;;5.35;1.15;;;16.00;99.90;;;;;;2085929;28;20068;-71
2022/10/06 01:14:11;;;;;;;5.18;1.33;;;16.00;99.90;;;;;;2088594;28;20040;-71
2022/10/06 01:15:11;;;;;;;5.72;1.33;;;16.00;99.90;;;;;;2085790;28;20028;-72
2022/10/06 01:16:17;;;;;;;6.95;1.63;;;16.00;99.90;;;;;;2086272;28;20021;-72
2022/10/06 01:17:40;;;;;;;3.53;1.23;;;16.00;99.90;;;;;;2087222;28;20456;-72
2022/10/06 01:18:43;;;;;;;6.72;1.45;;;16.00;99.90;;;;;;2086063;28;20492;-72
2022/10/06 01:19:53;;;;;;;7.15;1.55;;;15.90;99.90;;;;;;2086501;28;20067;-71
2022/10/06 01:21:08;;;;;;;2.90;1.42;;;15.90;99.90;;;;;;2087143;28;20079;-71
2022/10/06 01:22:13;;;;;;;4.75;1.42;;;15.90;99.90;;;;;;2086325;28;20059;-72
2022/10/06 01:23:14;;;;;;;4.15;1.63;;;15.80;99.90;;;;;;2085847;28;20067;-71
2022/10/06 01:24:17;;;;;;;5.03;1.45;;;15.80;99.90;;;;;;2086016;28;20931;-71
2022/10/06 01:25:18;;;;;;;5.28;1.20;;;15.80;99.90;;;;;;2086239;28;20029;-71
2022/10/06 01:26:21;;;;;;;6.85;1.38;;;15.80;99.90;;;;;;2087950;28;20138;-71
2022/10/06 01:27:23;;;;;;;6.25;1.52;;;15.80;99.90;;;;;;2086670;28;20029;-71
2022/10/06 01:28:24;;;;;;;5.45;1.52;;;15.80;99.90;;;;;;2085855;28;20096;-71
2022/10/06 01:29:25;;;;;;;6.10;1.30;;;15.80;99.90;;;;;;2077414;28;20099;-72
2022/10/06 01:30:30;;;;;;;5.50;1.15;;;15.80;99.90;;;;;;2076773;28;20033;-71
2022/10/06 01:31:31;;;;;;;4.47;1.40;;;15.80;99.90;;;;;;2085648;28;20060;-71
2022/10/06 01:32:35;;;;;;;3.85;1.30;;;15.80;99.90;;;;;;2085104;28;20033;-72
2022/10/06 01:33:35;;;;;;;2.85;1.20;;;15.80;99.90;;;;;;2084957;28;20029;-71
2022/10/06 01:34:36;;;;;;;4.25;1.48;;;15.80;99.90;;;;;;2086592;28;20029;-71
2022/10/06 01:35:37;;;;;;;5.43;1.60;;;15.70;99.90;;;;;;2084254;28;20025;-71
2022/10/06 01:36:40;;;;;;;4.93;1.20;;;15.70;99.90;;;;;;2085496;28;20024;-72
2022/10/06 01:37:40;;;;;;;3.53;1.17;;;15.70;99.90;;;;;;2085377;28;20025;-71
2022/10/06 01:38:41;;;;;;;5.32;1.40;;;15.70;99.90;;;;;;2085005;28;20115;-71
2022/10/06 01:39:43;;;;;;;3.50;1.45;;;15.70;99.90;;;;;;2086707;28;20043;-71
2022/10/06 01:40:44;;;;;;;4.15;1.35;;;15.70;99.90;;;;;;2087343;28;20107;-71
2022/10/06 01:41:46;;;;;;;3.35;1.60;;;15.70;99.90;;;;;;2085970;28;20103;-71
2022/10/06 01:42:47;;;;;;;4.88;1.48;;;15.70;99.90;;;;;;2083598;28;20631;-71
2022/10/06 01:43:47;;;;;;;6.03;1.77;;;15.70;99.90;;;;;;2085487;28;20588;-71
2022/10/06 01:44:48;;;;;;;6.18;1.77;;;15.70;99.90;;;;;;2086820;28;20021;-71
2022/10/06 01:45:56;;;;;;;4.20;1.52;;;15.60;99.90;;;;;;2086457;28;20025;-72
2022/10/06 01:46:56;;;;;;;4.25;1.33;;;15.60;99.90;;;;;;2083878;28;20757;-72
2022/10/06 01:47:57;;;;;;;4.70;1.50;;;15.60;99.90;;;;;;2087261;28;20882;-72
2022/10/06 01:48:57;;;;;;;4.97;1.30;;;15.60;99.90;;;;;;2087424;28;20131;-71
2022/10/06 01:49:58;;;;;;;8.50;1.60;;;15.60;99.90;;;;;;2085199;28;20108;-71
2022/10/06 01:50:59;;;;;;;5.13;1.40;;;15.60;99.90;;;;;;2087345;28;20021;-71
2022/10/06 01:52:00;;;;;;;6.55;1.65;;;15.60;99.90;;;;;;2088173;28;20037;-71
2022/10/06 01:53:01;;;;;;;8.52;1.65;;;15.60;99.90;;;;;;2087229;28;20037;-71
2022/10/06 01:54:01;;;;;;;4.68;1.45;;;15.50;99.90;;;;;;2085348;28;20057;-72
2022/10/06 01:55:03;;;;;;;5.20;1.60;;;15.60;99.90;;;;;;2086211;28;20330;-71
2022/10/06 01:56:04;;;;;;;6.18;1.67;;;15.60;99.90;;;;;;2085359;28;20387;-71
2022/10/06 01:57:07;;;;;;;5.75;1.58;;;15.50;99.90;;;;;;2085031;28;20400;-71
2022/10/06 01:58:09;;;;;;;5.57;1.58;;;15.60;99.90;;;;;;2087209;28;20029;-72
2022/10/06 01:59:10;;;;;;;6.90;1.92;;;15.50;99.90;;;;;;2084527;28;20040;-72
2022/10/06 02:00:11;;;;;;;4.43;1.77;;;15.50;99.90;;;;;;2087758;28;20090;-71
2022/10/06 02:01:12;;;;;;;8.73;2.05;;;15.50;99.90;;;;;;2086184;28;20029;-71
2022/10/06 02:02:12;;;;;;;7.35;2.10;;;15.50;99.90;;;;;;2086679;28;20021;-71
2022/10/06 02:03:13;;;;;;;7.43;1.92;;;15.50;99.90;;;;;;2078025;28;20246;-71
2022/10/06 02:04:14;;;;;;;6.68;1.80;;;15.50;99.90;;;;;;2076994;28;20060;-72
2022/10/06 02:05:14;;;;;;;6.60;1.65;;;15.40;99.90;;;;;;2087264;28;20535;-71
2022/10/06 02:06:15;;;;;;;7.53;1.80;;;15.40;99.90;;;;;;2078898;28;20117;-71
2022/10/06 02:07:15;;;;;;;7.30;1.75;;;15.40;99.90;;;;;;2078018;28;20025;-71
2022/10/06 02:08:16;;;;;;;6.03;1.83;;;15.40;99.90;;;;;;2086270;28;20021;-72
2022/10/06 02:09:17;;;;;;;6.22;1.73;;;15.40;99.90;;;;;;2083745;28;20476;-71
2022/10/06 02:10:17;;;;;;;11.18;2.10;;;15.40;99.90;;;;;;2085924;28;20021;-72
2022/10/06 02:11:18;;;;;;;9.07;1.83;;;15.40;99.90;;;;;;2085005;28;20473;-71
2022/10/06 02:12:19;;;;;;;5.15;1.77;;;15.40;99.90;;;;;;2085892;28;20017;-71
2022/10/06 02:13:24;;;;;;;6.10;1.65;;;15.40;99.90;;;;;;2085272;28;20106;-71
2022/10/06 02:14:24;;;;;;;6.35;1.85;;;15.40;99.90;;;;;;2086924;28;20101;-71
2022/10/06 02:15:26;;;;;;;14.05;2.08;;;15.40;99.90;;;;;;2087546;28;20017;-71
2022/10/06 02:16:27;;;;;;;7.03;2.00;;;15.40;99.90;;;;;;2084936;28;20017;-71
2022/10/06 02:17:28;;;;;;;5.47;2.00;;;15.40;99.90;;;;;;2085100;28;20760;-71
2022/10/06 02:18:28;;;;;;;12.25;2.45;;;15.30;99.90;;;;;;2085850;28;20436;-72
2022/10/06 02:19:29;;;;;;;8.20;2.35;;;15.40;99.90;;;;;;2085094;28;20017;-71
2022/10/06 02:20:29;;;;;;;10.10;2.42;;;15.40;99.90;;;;;;2087929;28;20029;-72
2022/10/06 02:21:30;;;;;;;11.00;2.45;;;15.30;99.90;;;;;;2086462;28;20376;-72
2022/10/06 02:22:31;;;;;;;8.52;2.15;;;15.30;99.90;;;;;;2086472;28;20037;-72
2022/10/06 02:23:31;;;;;;;6.47;1.98;;;15.30;99.90;;;;;;2085616;28;20028;-71
2022/10/06 02:24:33;;;;;;;7.60;1.70;;;15.30;99.90;;;;;;2075745;28;20028;-71
2022/10/06 02:25:34;;;;;;;7.22;2.15;;;15.30;99.90;;;;;;2078460;28;20536;-71
2022/10/06 02:26:34;;;;;;;8.90;2.00;;;15.30;99.90;;;;;;2084731;28;20020;-71
2022/10/06 02:27:35;;;;;;;6.72;1.83;;;15.30;99.90;;;;;;2087101;28;20033;-71
2022/10/06 02:28:35;;;;;;;7.35;2.10;;;15.30;99.90;;;;;;2077621;28;20044;-71
2022/10/06 02:29:36;;;;;;;9.23;2.28;;;15.30;99.90;;;;;;2077153;28;20018;-71
2022/10/06 02:30:36;;;;;;;8.82;2.08;;;15.30;99.90;;;;;;2087010;28;20489;-71
2022/10/06 02:31:37;;;;;;;8.98;2.38;;;15.20;99.90;;;;;;2086797;28;20099;-71
2022/10/06 02:32:39;;;;;;;5.55;1.98;;;15.20;99.90;;;;;;2085777;28;20028;-71
2022/10/06 02:33:40;;;;;;;9.93;2.65;;;15.20;99.90;;;;;;2086444;28;20346;-71
2022/10/06 02:34:42;;;;;;;8.82;2.30;;;15.20;99.90;;;;;;2086269;28;20765;-71
2022/10/06 02:35:43;;;;;;;7.15;2.20;;;15.20;99.90;;;;;;2086616;28;20033;-71
2022/10/06 02:36:43;;;;;;;5.53;1.85;;;15.20;99.90;;;;;;2085198;28;20112;-71
2022/10/06 02:37:44;;;;;;;9.57;2.95;;;15.20;99.90;;;;;;2085323;28;20055;-71
2022/10/06 02:38:45;;;;;;;6.15;1.75;;;15.20;99.90;;;;;;2085730;28;20021;-71
2022/10/06 02:39:46;;;;;;;8.60;2.25;;;15.20;99.90;;;;;;2085601;28;20029;-71
2022/10/06 02:40:46;;;;;;;7.10;2.08;;;15.20;99.90;;;;;;2085894;28;20028;-71
2022/10/06 02:41:47;;;;;;;8.45;2.20;;;15.20;99.90;;;;;;2085888;28;20040;-72
2022/10/06 02:42:48;;;;;;;11.05;2.30;;;15.20;99.90;;;;;;2086478;28;20462;-71
2022/10/06 02:43:48;;;;;;;5.00;2.25;;;15.20;99.90;;;;;;2086620;28;20053;-71
2022/10/06 02:44:51;;;;;;;6.55;1.90;;;15.20;99.90;;;;;;2085829;28;20045;-71
2022/10/06 02:45:55;;;;;;;7.38;2.53;;;15.20;99.90;;;;;;2087747;28;20384;-71
2022/10/06 02:46:56;;;;;;;8.02;2.15;;;15.10;99.90;;;;;;2086195;28;20115;-71
2022/10/06 02:47:56;;;;;;;5.80;1.63;;;15.10;99.90;;;;;;2085038;28;20021;-71
2022/10/06 02:48:58;;;;;;;9.90;2.10;;;15.10;99.90;;;;;;2087785;28;20033;-71
2022/10/06 02:50:00;;;;;;;8.57;2.33;;;15.10;99.90;;;;;;2087283;28;20016;-71
2022/10/06 02:51:05;;;;;;;6.50;1.70;;;15.10;99.90;;;;;;2085354;28;20017;-71
2022/10/06 02:52:07;;;;;;;7.75;2.03;;;15.10;99.90;;;;;;2085655;28;20017;-72
2022/10/06 02:53:08;;;;;;;7.47;1.90;;;15.10;99.90;;;;;;2085883;28;20048;-72
2022/10/06 02:54:08;;;;;;;8.55;2.05;;;15.00;99.90;;;;;;2086015;28;20804;-71
2022/10/06 02:55:09;;;;;;;7.00;1.70;;;15.10;99.90;;;;;;2084854;28;20021;-71
2022/10/06 02:56:14;;;;;;;9.82;2.50;;;15.00;99.90;;;;;;2083741;28;20152;-71
2022/10/06 02:57:15;;;;;;;7.93;2.00;;;15.00;99.90;;;;;;2087985;28;20033;-72
2022/10/06 02:58:15;;;;;;;6.75;1.88;;;15.00;99.90;;;;;;2085695;28;20032;-72
2022/10/06 02:59:16;;;;;;;6.18;1.98;;;15.00;99.90;;;;;;2084944;28;20037;-71
2022/10/06 03:00:17;;;;;;;6.75;1.80;;;15.00;99.90;;;;;;2084397;28;20024;-71
2022/10/06 03:01:23;;;;;;;8.27;1.70;;;15.00;99.90;;;;;;2085267;28;20416;-71
2022/10/06 03:02:23;;;;;;;6.93;1.92;;;15.00;99.90;;;;;;2084803;28;20035;-71
2022/10/06 03:03:24;;;;;;;8.95;2.22;;;15.00;99.90;;;;;;2085349;28;20024;-71
2022/10/06 03:04:25;;;;;;;7.70;2.08;;;15.00;99.90;;;;;;2079264;28;20025;-72
2022/10/06 03:05:25;;;;;;;10.38;1.85;;;15.00;99.90;;;;;;2078725;28;20366;-72
2022/10/06 03:06:29;;;;;;;6.32;2.05;;;15.00;99.90;;;;;;2085466;28;20026;-72
2022/10/06 03:07:29;;;;;;;4.75;1.85;;;15.00;99.90;;;;;;2085669;28;20025;-71
2022/10/06 03:08:30;;;;;;;7.13;1.65;;;15.00;99.90;;;;;;2085606;28;20112;-72
2022/10/06 03:09:31;;;;;;;7.72;2.33;;;15.00;99.90;;;;;;2085617;28;20486;-72
2022/10/06 03:10:31;;;;;;;9.82;1.95;;;15.00;99.90;;;;;;2084667;28;20481;-72
2022/10/06 03:11:34;;;;;;;6.88;1.95;;;15.00;99.90;;;;;;2086405;28;20846;-71
2022/10/06 03:12:34;;;;;;;7.95;2.35;;;15.00;99.90;;;;;;2086404;28;20024;-71
2022/10/06 03:13:35;;;;;;;9.50;2.42;;;15.00;99.90;;;;;;2083571;28;20033;-71
2022/10/06 03:14:35;;;;;;;8.43;1.90;;;15.00;99.90;;;;;;2085641;28;20112;-72
2022/10/06 03:15:36;;;;;;;4.85;1.73;;;15.00;99.90;;;;;;2082420;28;20547;-71
2022/10/06 03:16:39;;;;;;;10.27;2.30;;;15.00;99.90;;;;;;2085889;28;20082;-71
2022/10/06 03:17:40;;;;;;;5.90;2.00;;;15.00;99.90;;;;;;2085716;28;20511;-71
2022/10/06 03:18:43;;;;;;;5.70;1.88;;;15.00;99.90;;;;;;2086296;28;20025;-72
2022/10/06 03:19:44;;;;;;;7.65;2.13;;;15.00;99.90;;;;;;2088224;28;20104;-71
2022/10/06 03:20:44;;;;;;;9.13;2.15;;;15.00;99.90;;;;;;2087437;28;20028;-71
2022/10/06 03:21:45;;;;;;;5.22;1.98;;;15.00;99.90;;;;;;2084769;28;20087;-71
2022/10/06 03:22:45;;;;;;;7.43;1.85;;;15.00;99.90;;;;;;2084847;28;20074;-71
2022/10/06 03:23:48;;;;;;;10.55;2.22;;;15.00;99.90;;;;;;2085106;28;20037;-71
2022/10/06 03:24:49;;;;;;;6.07;2.20;;;15.00;99.90;;;;;;2085858;28;20025;-71
2022/10/06 03:25:56;;;;;;;6.63;1.90;;;15.00;99.90;;;;;;2086317;28;20046;-71
2022/10/06 03:26:57;;;;;;;8.38;2.50;;;15.00;99.90;;;;;;2084043;28;20033;-71
2022/10/06 03:27:57;;;;;;;12.65;2.90;;;15.00;99.90;;;;;;2086331;28;20136;-71
2022/10/06 03:28:59;;;;;;;6.97;2.33;;;14.90;99.90;;;;;;2087318;28;20579;-71
2022/10/06 03:29:59;;;;;;;6.25;2.30;;;14.90;99.90;;;;;;2085113;28;20083;-71
2022/10/06 03:31:02;;;;;;;7.72;2.25;;;15.00;99.90;;;;;;2085219;28;20154;-71
2022/10/06 03:32:02;;;;;;;13.82;2.53;;;14.90;99.90;;;;;;2085283;28;20036;-71
2022/10/06 03:33:03;;;;;;;5.50;1.73;;;14.90;99.90;;;;;;2083379;28;20060;-71
2022/10/06 03:34:04;;;;;;;8.95;1.98;;;15.00;99.90;;;;;;2085650;28;20553;-71
2022/10/06 03:35:05;;;;;;;6.88;1.95;;;14.90;99.90;;;;;;2086698;28;20124;-71
2022/10/06 03:36:10;;;;;;;5.18;1.90;;;14.90;99.90;;;;;;2084512;28;20518;-71
2022/10/06 03:37:10;;;;;;;6.18;1.90;;;14.90;99.90;;;;;;2084759;28;20032;-71
2022/10/06 03:38:11;;;;;;;8.27;2.03;;;14.90;99.90;;;;;;2084223;28;20123;-71
2022/10/06 03:39:12;;;;;;;5.78;2.10;;;14.90;99.90;;;;;;2085581;28;20029;-71
2022/10/06 03:40:13;;;;;;;5.47;1.80;;;14.90;99.90;;;;;;2084597;28;20548;-72
2022/10/06 03:41:19;;;;;;;4.05;1.80;;;14.90;99.90;;;;;;2085098;28;20116;-71
2022/10/06 03:42:19;;;;;;;8.85;2.22;;;14.90;99.90;;;;;;2086905;28;21676;-71
2022/10/06 03:43:20;;;;;;;7.93;2.28;;;14.90;99.90;;;;;;2084870;28;20052;-71
2022/10/06 03:44:21;;;;;;;7.38;2.20;;;14.80;99.90;;;;;;2084793;28;20137;-71
2022/10/06 03:45:22;;;;;;;8.02;1.90;;;14.80;99.90;;;;;;2084768;28;20020;-71
2022/10/06 03:46:25;;;;;;;5.03;2.00;;;14.80;99.90;;;;;;2084499;28;20057;-71
2022/10/06 03:47:28;;;;;;;6.70;1.90;;;14.80;99.90;;;;;;2086396;28;20107;-71
2022/10/06 03:48:32;;;;;;;6.43;1.88;;;14.80;99.90;;;;;;2086276;28;20839;-71
2022/10/06 03:49:32;;;;;;;9.07;2.50;;;14.80;99.90;;;;;;2077734;28;20421;-71
2022/10/06 03:50:33;;;;;;;7.45;2.33;;;14.80;99.90;;;;;;2075726;28;20135;-71
2022/10/06 03:51:36;;;;;;;9.23;2.70;;;14.80;99.90;;;;;;2087770;28;20056;-72
2022/10/06 03:52:37;;;;;;;11.88;3.20;;;14.80;99.90;;;;;;2087558;28;20112;-71
2022/10/06 03:53:38;;;;;;;6.95;1.77;;;14.80;99.90;;;;;;2085399;28;20511;-71
2022/10/06 03:54:38;;;;;;;8.88;2.38;;;14.80;99.90;;;;;;2085657;28;20075;-71
2022/10/06 03:55:39;;;;;;;7.40;1.80;;;14.80;99.90;;;;;;2082424;28;20078;-71
2022/10/06 03:56:41;;;;;;;8.82;2.40;;;14.80;99.90;;;;;;2085719;28;20115;-71
2022/10/06 03:57:41;;;;;;;7.90;1.77;;;14.80;99.90;;;;;;2085874;28;20448;-71
2022/10/06 03:58:44;;;;;;;8.75;2.03;;;14.70;99.90;;;;;;2086354;28;20055;-71
2022/10/06 03:59:45;;;;;;;11.50;2.65;;;14.80;99.90;;;;;;2077896;28;20033;-71
2022/10/06 04:00:45;;;;;;;7.25;2.10;;;14.80;99.90;;;;;;2076532;28;20029;-71
2022/10/06 04:01:47;;;;;;;7.72;2.10;;;14.80;99.90;;;;;;2085469;28;20032;-71
2022/10/06 04:02:49;;;;;;;13.40;3.33;;;14.80;99.90;;;;;;2085926;28;20480;-71
2022/10/06 04:03:49;;;;;;;9.18;2.90;;;14.70;99.90;;;;;;2085737;28;20059;-71
2022/10/06 04:04:50;;;;;;;9.10;2.55;;;14.80;99.90;;;;;;2084519;28;20096;-71
2022/10/06 04:05:55;;;;;;;6.97;2.67;;;14.80;99.90;;;;;;2085882;28;20028;-71
2022/10/06 04:06:56;;;;;;;8.25;2.42;;;14.70;99.90;;;;;;2084058;28;20032;-71
2022/10/06 04:07:56;;;;;;;10.32;2.90;;;14.70;99.90;;;;;;2086800;28;20108;-71
2022/10/06 04:08:57;;;;;;;8.73;2.25;;;14.70;99.90;;;;;;2081955;28;20703;-71
2022/10/06 04:09:58;;;;;;;8.50;2.50;;;14.70;99.90;;;;;;2084161;28;20635;-72
2022/10/06 04:11:06;;;;;;;11.75;3.40;;;14.70;99.90;;;;;;2088541;28;20498;-71
2022/10/06 04:12:06;;;;;;;8.75;2.30;;;14.70;99.90;;;;;;2084925;28;20150;-71
2022/10/06 04:13:07;;;;;;;6.85;2.85;;;14.70;99.90;;;;;;2083381;28;20064;-71
2022/10/06 04:14:09;;;;;;;6.57;1.85;;;14.60;99.90;;;;;;2085133;28;20504;-71
2022/10/06 04:15:10;;;;;;;8.35;2.42;;;14.60;99.90;;;;;;2084345;28;20052;-71
2022/10/06 04:16:19;;;;;;;10.52;3.10;;;14.60;99.90;;;;;;2084043;28;20036;-71
2022/10/06 04:17:20;;;;;;;9.27;2.83;;;14.60;99.90;;;;;;2085823;28;20102;-72
2022/10/06 04:18:20;;;;;;;7.20;2.60;;;14.60;99.90;;;;;;2084687;28;20276;-71
2022/10/06 04:19:21;;;;;;;8.02;2.35;;;14.60;99.90;;;;;;2086602;28;20106;-71
2022/10/06 04:20:21;;;;;;;11.98;2.70;;;14.60;99.90;;;;;;2084238;28;20393;-72
2022/10/06 04:21:24;;;;;;;7.50;2.47;;;14.60;99.90;;;;;;2085514;28;20021;-71
2022/10/06 04:22:24;;;;;;;8.13;2.70;;;14.60;99.90;;;;;;2086498;28;20122;-72
2022/10/06 04:23:25;;;;;;;8.13;2.50;;;14.50;99.90;;;;;;2083844;28;20021;-71
2022/10/06 04:24:25;;;;;;;9.70;2.50;;;14.50;99.90;;;;;;2085014;28;20029;-71
2022/10/06 04:25:26;;;;;;;10.93;2.70;;;14.50;99.90;;;;;;2085268;28;20029;-71
2022/10/06 04:26:30;;;;;;;7.07;1.85;;;14.50;99.90;;;;;;2084676;28;20094;-71
2022/10/06 04:27:30;;;;;;;9.43;2.10;;;14.50;99.90;;;;;;2084525;28;20017;-71
2022/10/06 04:28:31;;;;;;;10.45;2.85;;;14.50;99.90;;;;;;2083583;28;20017;-71
2022/10/06 04:29:32;;;;;;;6.75;2.50;;;14.50;99.90;;;;;;2085388;28;20033;-71
2022/10/06 04:30:32;;;;;;;6.60;1.90;;;14.50;99.90;;;;;;2086300;28;20057;-71
2022/10/06 04:31:35;;;;;;;9.43;2.92;;;14.50;99.90;;;;;;2084896;28;20407;-71
2022/10/06 04:32:36;;;;;;;6.13;2.40;;;14.50;99.90;;;;;;2084973;28;20017;-71
2022/10/06 04:33:37;;;;;;;12.80;3.40;;;14.50;99.90;;;;;;2085875;28;20024;-71
2022/10/06 04:34:37;;;;;;;14.57;3.28;;;14.50;99.90;;;;;;2083817;28;20112;-71
2022/10/06 04:35:38;;;;;;;11.30;2.80;;;14.50;99.90;;;;;;2084412;28;20025;-71
2022/10/06 04:36:40;;;;;;;10.70;2.70;;;14.50;99.90;;;;;;2084364;28;20638;-71
2022/10/06 04:37:40;;;;;;;14.75;3.60;;;14.50;99.90;;;;;;2082984;28;20656;-71
2022/10/06 04:38:41;;;;;;;9.55;2.60;;;14.50;99.90;;;;;;2083679;28;20389;-71
2022/10/06 04:39:42;;;;;;;8.40;2.97;;;14.40;99.90;;;;;;2083294;28;20030;-71
2022/10/06 04:40:42;;;;;;;10.05;2.65;;;14.40;99.90;;;;;;2087943;28;20029;-71
2022/10/06 04:41:45;;;;;;;7.55;2.40;;;14.40;99.90;;;;;;2086423;28;20040;-71
2022/10/06 04:42:47;;;;;;;6.47;2.78;;;14.40;99.90;;;;;;2086120;28;20429;-71
2022/10/06 04:43:49;;;;;;;7.60;2.40;;;14.40;99.90;;;;;;2084926;28;20241;-72
2022/10/06 04:44:49;;;;;;;7.03;2.28;;;14.40;99.90;;;;;;2083914;28;20531;-71
2022/10/06 04:45:57;;;;;;;9.75;2.65;;;14.40;99.90;;;;;;2084244;28;20606;-71
2022/10/06 04:46:59;;;;;;;9.30;2.80;;;14.40;99.90;;;;;;2084655;28;20016;-71
2022/10/06 04:48:00;;;;;;;8.20;2.58;;;14.40;99.90;;;;;;2084524;28;20025;-71
2022/10/06 04:49:01;;;;;;;9.63;2.67;;;14.30;99.90;;;;;;2079383;28;20798;-72
2022/10/06 04:50:01;;;;;;;8.52;2.50;;;14.30;99.90;;;;;;2080069;28;20030;-71
2022/10/06 04:51:05;;;;;;;9.35;2.97;;;14.30;99.90;;;;;;2084882;28;20025;-71
2022/10/06 04:52:06;;;;;;;12.77;2.92;;;14.30;99.90;;;;;;2089164;28;20044;-71
2022/10/06 04:53:06;;;;;;;7.30;2.28;;;14.30;99.90;;;;;;2088714;28;20869;-71
2022/10/06 04:54:07;;;;;;;11.63;2.60;;;14.30;99.90;;;;;;2085306;28;20025;-71
2022/10/06 04:55:09;;;;;;;7.53;2.35;;;14.30;99.90;;;;;;2086022;28;20028;-71
2022/10/06 04:56:11;;;;;;;10.93;3.33;;;14.30;99.90;;;;;;2086272;28;20393;-72
2022/10/06 04:57:11;;;;;;;8.75;2.28;;;14.30;99.90;;;;;;2085549;28;20060;-71
2022/10/06 04:58:12;;;;;;;12.90;2.85;;;14.30;99.90;;;;;;2087701;28;20083;-71
2022/10/06 04:59:13;;;;;;;14.55;2.80;;;14.20;99.90;;;;;;2087904;28;20534;-71
2022/10/06 05:00:22;;;;;;;10.32;2.78;;;14.30;99.90;;;;;;2085504;28;20041;-71
2022/10/06 05:01:29;;;;;;;10.02;2.58;;;14.20;99.90;;;;;;2087241;28;20029;-71
2022/10/06 05:02:29;;;;;;;11.35;2.80;;;14.20;99.90;;;;;;2086253;28;20032;-71
2022/10/06 05:03:30;;;;;;;10.43;3.28;;;14.20;99.90;;;;;;2086180;28;20476;-71
2022/10/06 05:04:31;;;;;;;11.70;3.10;;;14.20;99.90;;;;;;2087259;28;20107;-71
2022/10/06 05:05:31;;;;;;;12.20;3.13;;;14.20;99.90;;;;;;2084791;28;20033;-71
2022/10/06 05:06:40;;;;;;;10.90;3.10;;;14.10;99.90;;;;;;2086783;28;20544;-71
2022/10/06 05:07:44;;;;;;;11.05;2.67;;;14.10;99.90;;;;;;2087985;28;20482;-71
2022/10/06 05:08:52;;;;;;;12.73;3.13;;;14.10;99.90;;;;;;2085987;28;20118;-71
2022/10/06 05:09:53;;;;;;;7.93;2.35;;;14.10;99.90;;;;;;2087643;28;20028;-71
2022/10/06 05:11:08;;;;;;;11.95;3.42;;;14.10;99.90;;;;;;2085856;28;20032;-71
2022/10/06 05:12:09;;;;;;;13.15;3.30;;;14.10;99.90;;;;;;2086513;28;20025;-71
2022/10/06 05:13:12;;;;;;;11.85;3.95;;;14.10;99.90;;;;;;2085633;28;20017;-71
2022/10/06 05:14:12;;;;;;;8.25;3.53;;;14.10;99.90;;;;;;2086096;28;20064;-71
2022/10/06 05:15:14;;;;;;;13.52;3.30;;;14.10;99.90;;;;;;2085407;28;20029;-71
2022/10/06 05:16:16;;;;;;;12.18;3.50;;;14.00;99.90;;;;;;2087687;28;20204;-71
2022/10/06 05:17:17;;;;;;;8.90;3.13;;;14.00;99.90;;;;;;2084291;28;20021;-71
2022/10/06 05:18:17;;;;;;;8.40;3.25;;;14.00;99.90;;;;;;2086695;28;20030;-71
2022/10/06 05:19:18;;;;;;;11.07;3.25;;;14.00;99.90;;;;;;2087671;28;20037;-71
2022/10/06 05:20:21;;;;;;;9.75;3.33;;;14.00;99.90;;;;;;2086720;28;20116;-71
2022/10/06 05:21:25;;;;;;;10.32;2.92;;;14.00;99.90;;;;;;2087432;28;20045;-71